Kewanee, Illinois
Current Conditions -  °F | °C
As of 1:55 AM on Monday 24 Nov 2014 (Local Time) from KC75 Reporting Station
Light Rain Light Rain  
Wind Chill: 46°   Ceiling: 500
Heat Index: 49°   Visibility: 7mi
Dew Point: 48°   Wind: 6mph
Humidity: 97%   Direction: 260°W
Pressure: 29.12"   Gusts: NA
Location:  41.25°N, 89.92°W
Report Text: KC75 240755Z AUTO 26005KT 7SM -RA OVC005 09/09 A2912 RMK AO2 P0015 T00920087
Loading
Personal Weather Stations






























Interactive Weather Map New forecast layout! Learn more

10-Day Weather Forecast

Advertisements
Track Severe Weather on mobile